الصفحة الرئيسية
METAR-TAF:

METAR-TAF

مطار :

مطار واغادوغو

واغادوغو, بوركينا فاسو

دائرة عرض: 12-21N, خط طول: 001-31W, ارتفاع: 316 متر

مراقبة الطقس الحالي

تاريخ ووقت الإصدار 1ساعة و 7 دقيقة قبل الساعة 15:00UTC
ريح 7 عقدة من الشمال الغربي
درجة الحرارة 26°درجة مئوية
الرطوبة 84%
ضغط 1010 hPa
الرؤية 10 كم أو أكثر
غيوم مفككة على ارتفاع 2000 قدم
غيوم قليلة على ارتفاع 3000 قدم, مزنة ركامية.

METAR: DFFD 181500Z 31007KT 9999 BKN020 FEW030CB 26/23 Q1010 TEMPO 4000 TSRA

زمن: 16:07 (16:07 UTC)

توقعات

تاريخ ووقت الإصدار 5ساعات و 7 دقيقة قبل الساعة 11:00UTC
التوقعات صالحة من18 الساعة 12 UTC إلى 19 الساعة 18 UTC
ريح 8 عقدة من الغرب/الجنوب الغربي
الرؤية 10 كم أو أكثر
غيوم متفرقة على ارتفاع 2000 قدم
مؤقت
من 18 الساعة 16 UTC إلى 18 الساعة 24 UTC
الرؤية: 4000 متر
غيوم متفرقة على ارتفاع 2000 قدم
غيوم متفرقة على ارتفاع 3300 قدم, مزنة ركامية.
عاصفة رعدية, مطر

TAF: DFFD 181100Z 1812/1918 24008KT 9999 SCT020 TEMPO 1816/1824 4000 TSRA SCT020 SCT033CB

أرصاد الطقس والتوقعات من أكثر من 4000 مطار (تقارير الطقس للمطار METAR والتنبؤ بالطقس بالمطارTAF).

المحطات المتاحة هي النقط الصفراء والحمراء على الخريطة.

حرك المؤشر فوق النقطة لمعرفة اسم المحطة.

ثم انقر لمعرفة أرصاد وتوقعات الطقس.

لتغيير الخارطة: اضغط على الأزرار الخضراء مع رمز الصليب الأسود للتكبير. على الزر الأخضر مع شرطة للتصغير، أو على الأسهم الخضراء للخرائط المجاورة.


METAR-TAF: